FR-0217 weather

Centre Hospitalier Heliport
Sallanches, Rhône Alpes, France

Public forecast

Using degrees Celsius for public forecast. Weather courtesy of forecast.io.

METAR (pilot weather report)

Closest report is Annecy-Haute-Savoie-Mont Blanc Airport, 22.4 nm (41.4 km) W. Retrieved 2019/07/21 08:30 UTC (0 seconds ago):

LFLP 210830Z AUTO VRB03KT 9999 FEW060 26/15 Q1023 NOSIG

TAF (pilot weather forecast)

Closest forecast is Annecy-Haute-Savoie-Mont Blanc Airport, 22.4 nm (41.4 km) W. Retrieved 2019/07/21 09:00 UTC (0 seconds ago):

TAF LFLP 210800Z 2109/2209 30005KT CAVOK